Aviation Digital Data Service (ADDS)

Output produced by METARs form (0257 UTC 16 September 2014)
found at http://aviationweather.gov/adds/metars/
 
KFAY 160256Z 1603/1624 VRB05KT P6SM OVC045 
     TEMPO 1608/1612 5SM BR BKN005 OVC015 
     FM161400 VRB05KT P6SM SCT050